sensor_id;sensor_type;location;lat;lon;timestamp;P1;durP1;ratioP1;P2;durP2;ratioP2
42682;SDS011;28293;50.930;3.464;2023-08-21T00:00:23;8.18;;;4.15;;
42682;SDS011;28293;50.930;3.464;2023-08-21T00:02:48;9.70;;;4.40;;
42682;SDS011;28293;50.930;3.464;2023-08-21T00:05:14;9.35;;;4.40;;
42682;SDS011;28293;50.930;3.464;2023-08-21T00:07:39;10.20;;;4.43;;
42682;SDS011;28293;50.930;3.464;2023-08-21T00:10:05;11.45;;;4.45;;
42682;SDS011;28293;50.930;3.464;2023-08-21T00:12:32;10.98;;;4.68;;
42682;SDS011;28293;50.930;3.464;2023-08-21T00:14:57;12.57;;;4.05;;
42682;SDS011;28293;50.930;3.464;2023-08-21T00:17:23;8.90;;;4.30;;
42682;SDS011;28293;50.930;3.464;2023-08-21T00:19:49;10.68;;;4.40;;
42682;SDS011;28293;50.930;3.464;2023-08-21T00:22:14;10.43;;;4.90;;
42682;SDS011;28293;50.930;3.464;2023-08-21T00:24:40;11.75;;;4.68;;
42682;SDS011;28293;50.930;3.464;2023-08-21T00:27:06;12.07;;;4.43;;
42682;SDS011;28293;50.930;3.464;2023-08-21T00:29:31;11.10;;;4.78;;
42682;SDS011;28293;50.930;3.464;2023-08-21T00:31:57;11.60;;;4.50;;
42682;SDS011;28293;50.930;3.464;2023-08-21T00:34:23;11.13;;;4.38;;
42682;SDS011;28293;50.930;3.464;2023-08-21T00:36:48;10.63;;;4.13;;
42682;SDS011;28293;50.930;3.464;2023-08-21T00:39:14;7.85;;;3.92;;
42682;SDS011;28293;50.930;3.464;2023-08-21T00:41:40;9.48;;;4.40;;
42682;SDS011;28293;50.930;3.464;2023-08-21T00:44:07;12.02;;;4.43;;
42682;SDS011;28293;50.930;3.464;2023-08-21T00:46:32;9.02;;;3.97;;
42682;SDS011;28293;50.930;3.464;2023-08-21T00:48:59;11.05;;;5.18;;
42682;SDS011;28293;50.930;3.464;2023-08-21T00:51:25;10.70;;;4.07;;
42682;SDS011;28293;50.930;3.464;2023-08-21T00:53:51;11.98;;;5.20;;
42682;SDS011;28293;50.930;3.464;2023-08-21T00:56:16;9.10;;;4.32;;
42682;SDS011;28293;50.930;3.464;2023-08-21T00:58:42;12.38;;;4.63;;
42682;SDS011;28293;50.930;3.464;2023-08-21T01:01:08;9.60;;;4.05;;
42682;SDS011;28293;50.930;3.464;2023-08-21T01:03:34;10.25;;;4.55;;
42682;SDS011;28293;50.930;3.464;2023-08-21T01:05:59;11.90;;;4.57;;
42682;SDS011;28293;50.930;3.464;2023-08-21T01:08:27;10.57;;;4.13;;
42682;SDS011;28293;50.930;3.464;2023-08-21T01:14:43;9.13;;;4.20;;
42682;SDS011;28293;50.930;3.464;2023-08-21T01:17:02;8.02;;;3.70;;
42682;SDS011;28293;50.930;3.464;2023-08-21T01:19:36;10.20;;;4.78;;
42682;SDS011;28293;50.930;3.464;2023-08-21T01:22:06;10.23;;;4.15;;
42682;SDS011;28293;50.930;3.464;2023-08-21T01:24:31;10.68;;;3.95;;
42682;SDS011;28293;50.930;3.464;2023-08-21T01:26:58;8.88;;;3.65;;
42682;SDS011;28293;50.930;3.464;2023-08-21T01:29:24;11.13;;;4.55;;
42682;SDS011;28293;50.930;3.464;2023-08-21T01:32:12;10.02;;;4.68;;
42682;SDS011;28293;50.930;3.464;2023-08-21T01:34:43;9.40;;;4.00;;
42682;SDS011;28293;50.930;3.464;2023-08-21T01:37:11;9.27;;;3.58;;
42682;SDS011;28293;50.930;3.464;2023-08-21T01:39:38;9.93;;;3.88;;
42682;SDS011;28293;50.930;3.464;2023-08-21T01:42:03;9.95;;;4.35;;
42682;SDS011;28293;50.930;3.464;2023-08-21T01:44:29;9.93;;;3.90;;
42682;SDS011;28293;50.930;3.464;2023-08-21T01:46:55;10.43;;;3.75;;
42682;SDS011;28293;50.930;3.464;2023-08-21T01:49:20;11.23;;;3.95;;
42682;SDS011;28293;50.930;3.464;2023-08-21T01:51:46;11.32;;;4.40;;
42682;SDS011;28293;50.930;3.464;2023-08-21T01:54:12;10.07;;;4.35;;
42682;SDS011;28293;50.930;3.464;2023-08-21T01:56:38;11.40;;;4.50;;
42682;SDS011;28293;50.930;3.464;2023-08-21T01:59:04;9.23;;;4.35;;
42682;SDS011;28293;50.930;3.464;2023-08-21T02:01:31;10.48;;;4.63;;
42682;SDS011;28293;50.930;3.464;2023-08-21T02:03:57;11.68;;;4.78;;
42682;SDS011;28293;50.930;3.464;2023-08-21T02:06:23;12.00;;;4.90;;
42682;SDS011;28293;50.930;3.464;2023-08-21T02:08:48;9.27;;;3.92;;
42682;SDS011;28293;50.930;3.464;2023-08-21T02:11:14;9.52;;;3.85;;
42682;SDS011;28293;50.930;3.464;2023-08-21T02:13:40;10.25;;;4.50;;
42682;SDS011;28293;50.930;3.464;2023-08-21T02:16:06;11.73;;;4.70;;
42682;SDS011;28293;50.930;3.464;2023-08-21T02:18:31;10.88;;;4.45;;
42682;SDS011;28293;50.930;3.464;2023-08-21T02:20:57;11.13;;;4.75;;
42682;SDS011;28293;50.930;3.464;2023-08-21T02:23:24;13.40;;;5.40;;
42682;SDS011;28293;50.930;3.464;2023-08-21T02:25:51;11.13;;;5.20;;
42682;SDS011;28293;50.930;3.464;2023-08-21T02:28:16;9.70;;;4.43;;
42682;SDS011;28293;50.930;3.464;2023-08-21T02:30:42;11.82;;;4.43;;
42682;SDS011;28293;50.930;3.464;2023-08-21T02:33:08;11.40;;;4.70;;
42682;SDS011;28293;50.930;3.464;2023-08-21T02:35:34;13.55;;;4.78;;
42682;SDS011;28293;50.930;3.464;2023-08-21T02:38:00;11.40;;;4.97;;
42682;SDS011;28293;50.930;3.464;2023-08-21T02:40:25;11.38;;;4.50;;
42682;SDS011;28293;50.930;3.464;2023-08-21T02:42:51;9.93;;;4.82;;
42682;SDS011;28293;50.930;3.464;2023-08-21T02:45:17;10.00;;;5.07;;
42682;SDS011;28293;50.930;3.464;2023-08-21T02:47:44;10.98;;;4.78;;
42682;SDS011;28293;50.930;3.464;2023-08-21T02:50:09;11.65;;;5.15;;
42682;SDS011;28293;50.930;3.464;2023-08-21T02:52:35;10.27;;;5.28;;
42682;SDS011;28293;50.930;3.464;2023-08-21T02:55:02;15.90;;;5.13;;
42682;SDS011;28293;50.930;3.464;2023-08-21T02:57:28;13.48;;;5.30;;
42682;SDS011;28293;50.930;3.464;2023-08-21T02:59:55;12.57;;;5.70;;
42682;SDS011;28293;50.930;3.464;2023-08-21T03:02:20;11.30;;;5.30;;
42682;SDS011;28293;50.930;3.464;2023-08-21T03:04:46;12.40;;;4.93;;
42682;SDS011;28293;50.930;3.464;2023-08-21T03:07:13;12.00;;;5.53;;
42682;SDS011;28293;50.930;3.464;2023-08-21T03:09:40;14.68;;;5.55;;
42682;SDS011;28293;50.930;3.464;2023-08-21T03:12:06;12.55;;;5.05;;
42682;SDS011;28293;50.930;3.464;2023-08-21T03:14:32;10.27;;;5.25;;
42682;SDS011;28293;50.930;3.464;2023-08-21T03:16:58;15.13;;;6.28;;
42682;SDS011;28293;50.930;3.464;2023-08-21T03:19:24;11.95;;;5.75;;
42682;SDS011;28293;50.930;3.464;2023-08-21T03:21:50;11.80;;;5.75;;
42682;SDS011;28293;50.930;3.464;2023-08-21T03:24:16;12.57;;;5.38;;
42682;SDS011;28293;50.930;3.464;2023-08-21T03:26:42;14.55;;;6.18;;
42682;SDS011;28293;50.930;3.464;2023-08-21T03:29:08;12.70;;;6.20;;
42682;SDS011;28293;50.930;3.464;2023-08-21T03:31:33;16.70;;;6.40;;
42682;SDS011;28293;50.930;3.464;2023-08-21T03:33:59;13.07;;;6.28;;
42682;SDS011;28293;50.930;3.464;2023-08-21T03:36:25;14.30;;;5.72;;
42682;SDS011;28293;50.930;3.464;2023-08-21T03:39:00;14.32;;;6.80;;
42682;SDS011;28293;50.930;3.464;2023-08-21T03:41:26;14.15;;;7.13;;
42682;SDS011;28293;50.930;3.464;2023-08-21T03:43:52;13.88;;;6.45;;
42682;SDS011;28293;50.930;3.464;2023-08-21T03:46:18;14.18;;;6.50;;
42682;SDS011;28293;50.930;3.464;2023-08-21T03:48:44;12.50;;;6.78;;
42682;SDS011;28293;50.930;3.464;2023-08-21T03:51:10;16.77;;;7.50;;
42682;SDS011;28293;50.930;3.464;2023-08-21T03:53:36;14.00;;;6.93;;
42682;SDS011;28293;50.930;3.464;2023-08-21T03:56:01;13.23;;;6.55;;
42682;SDS011;28293;50.930;3.464;2023-08-21T03:58:27;14.02;;;6.80;;
42682;SDS011;28293;50.930;3.464;2023-08-21T04:00:53;14.32;;;6.78;;
42682;SDS011;28293;50.930;3.464;2023-08-21T04:03:20;11.93;;;6.22;;
42682;SDS011;28293;50.930;3.464;2023-08-21T04:05:46;13.35;;;6.53;;
42682;SDS011;28293;50.930;3.464;2023-08-21T04:08:11;11.85;;;6.18;;
42682;SDS011;28293;50.930;3.464;2023-08-21T04:10:37;13.55;;;6.38;;
42682;SDS011;28293;50.930;3.464;2023-08-21T04:13:07;12.70;;;6.00;;
42682;SDS011;28293;50.930;3.464;2023-08-21T04:15:33;14.50;;;6.35;;
42682;SDS011;28293;50.930;3.464;2023-08-21T04:18:00;14.13;;;7.00;;
42682;SDS011;28293;50.930;3.464;2023-08-21T04:20:26;13.73;;;6.13;;
42682;SDS011;28293;50.930;3.464;2023-08-21T04:22:51;14.93;;;6.82;;
42682;SDS011;28293;50.930;3.464;2023-08-21T04:25:17;11.70;;;6.38;;
42682;SDS011;28293;50.930;3.464;2023-08-21T04:27:43;14.85;;;6.55;;
42682;SDS011;28293;50.930;3.464;2023-08-21T04:30:09;12.60;;;7.10;;
42682;SDS011;28293;50.930;3.464;2023-08-21T04:32:35;14.20;;;6.55;;
42682;SDS011;28293;50.930;3.464;2023-08-21T04:35:01;13.65;;;5.85;;
42682;SDS011;28293;50.930;3.464;2023-08-21T04:37:27;12.05;;;5.97;;
42682;SDS011;28293;50.930;3.464;2023-08-21T04:39:53;14.98;;;7.13;;
42682;SDS011;28293;50.930;3.464;2023-08-21T04:42:18;15.55;;;7.03;;
42682;SDS011;28293;50.930;3.464;2023-08-21T04:44:45;16.80;;;7.63;;
42682;SDS011;28293;50.930;3.464;2023-08-21T04:47:21;14.70;;;7.38;;
42682;SDS011;28293;50.930;3.464;2023-08-21T04:49:48;16.55;;;8.88;;
42682;SDS011;28293;50.930;3.464;2023-08-21T04:52:14;19.00;;;8.80;;
42682;SDS011;28293;50.930;3.464;2023-08-21T04:54:40;20.05;;;9.43;;
42682;SDS011;28293;50.930;3.464;2023-08-21T04:57:06;18.10;;;8.63;;
42682;SDS011;28293;50.930;3.464;2023-08-21T04:59:32;19.63;;;8.82;;
42682;SDS011;28293;50.930;3.464;2023-08-21T05:01:57;16.00;;;8.60;;
42682;SDS011;28293;50.930;3.464;2023-08-21T05:04:23;19.20;;;9.98;;
42682;SDS011;28293;50.930;3.464;2023-08-21T05:06:49;16.15;;;9.02;;
42682;SDS011;28293;50.930;3.464;2023-08-21T05:09:14;18.83;;;10.52;;
42682;SDS011;28293;50.930;3.464;2023-08-21T05:11:40;18.08;;;9.57;;
42682;SDS011;28293;50.930;3.464;2023-08-21T05:14:06;20.90;;;10.60;;
42682;SDS011;28293;50.930;3.464;2023-08-21T05:16:31;17.60;;;9.23;;
42682;SDS011;28293;50.930;3.464;2023-08-21T05:18:57;18.75;;;9.95;;
42682;SDS011;28293;50.930;3.464;2023-08-21T05:21:23;17.55;;;9.98;;
42682;SDS011;28293;50.930;3.464;2023-08-21T05:23:48;19.70;;;10.45;;
42682;SDS011;28293;50.930;3.464;2023-08-21T05:26:14;21.70;;;11.07;;
42682;SDS011;28293;50.930;3.464;2023-08-21T05:28:40;22.92;;;11.20;;
42682;SDS011;28293;50.930;3.464;2023-08-21T05:31:05;23.15;;;11.90;;
42682;SDS011;28293;50.930;3.464;2023-08-21T05:33:31;22.80;;;11.75;;
42682;SDS011;28293;50.930;3.464;2023-08-21T05:35:57;24.05;;;13.25;;
42682;SDS011;28293;50.930;3.464;2023-08-21T05:38:23;21.75;;;11.50;;
42682;SDS011;28293;50.930;3.464;2023-08-21T05:40:48;24.20;;;12.43;;
42682;SDS011;28293;50.930;3.464;2023-08-21T05:43:15;19.35;;;10.70;;
42682;SDS011;28293;50.930;3.464;2023-08-21T05:45:42;20.58;;;11.88;;
42682;SDS011;28293;50.930;3.464;2023-08-21T05:48:07;21.02;;;11.07;;
42682;SDS011;28293;50.930;3.464;2023-08-21T05:50:33;19.58;;;11.23;;
42682;SDS011;28293;50.930;3.464;2023-08-21T05:53:01;18.45;;;10.85;;
42682;SDS011;28293;50.930;3.464;2023-08-21T05:55:31;20.83;;;11.50;;
42682;SDS011;28293;50.930;3.464;2023-08-21T05:57:57;19.80;;;10.02;;
42682;SDS011;28293;50.930;3.464;2023-08-21T06:00:23;31.58;;;13.48;;
42682;SDS011;28293;50.930;3.464;2023-08-21T06:02:48;23.50;;;13.65;;
42682;SDS011;28293;50.930;3.464;2023-08-21T06:05:14;26.05;;;14.95;;
42682;SDS011;28293;50.930;3.464;2023-08-21T06:07:40;31.65;;;13.77;;
42682;SDS011;28293;50.930;3.464;2023-08-21T06:10:07;29.38;;;14.07;;
42682;SDS011;28293;50.930;3.464;2023-08-21T06:12:33;31.50;;;14.70;;
42682;SDS011;28293;50.930;3.464;2023-08-21T06:14:59;35.65;;;17.33;;
42682;SDS011;28293;50.930;3.464;2023-08-21T06:17:26;41.47;;;18.42;;
42682;SDS011;28293;50.930;3.464;2023-08-21T06:19:53;37.88;;;18.85;;
42682;SDS011;28293;50.930;3.464;2023-08-21T06:22:18;47.10;;;23.55;;
42682;SDS011;28293;50.930;3.464;2023-08-21T06:24:44;44.03;;;23.05;;
42682;SDS011;28293;50.930;3.464;2023-08-21T06:27:10;49.53;;;25.65;;
42682;SDS011;28293;50.930;3.464;2023-08-21T06:29:36;51.75;;;24.67;;
42682;SDS011;28293;50.930;3.464;2023-08-21T06:32:02;48.22;;;25.83;;
42682;SDS011;28293;50.930;3.464;2023-08-21T06:34:28;50.97;;;28.25;;
42682;SDS011;28293;50.930;3.464;2023-08-21T06:36:54;54.20;;;27.52;;
42682;SDS011;28293;50.930;3.464;2023-08-21T06:39:20;53.95;;;29.45;;
42682;SDS011;28293;50.930;3.464;2023-08-21T06:41:45;44.00;;;24.35;;
42682;SDS011;28293;50.930;3.464;2023-08-21T06:44:11;51.53;;;27.60;;
42682;SDS011;28293;50.930;3.464;2023-08-21T06:46:37;48.92;;;26.48;;
42682;SDS011;28293;50.930;3.464;2023-08-21T06:49:02;47.95;;;26.50;;
42682;SDS011;28293;50.930;3.464;2023-08-21T06:51:28;43.22;;;24.70;;
42682;SDS011;28293;50.930;3.464;2023-08-21T06:53:54;40.60;;;23.77;;
42682;SDS011;28293;50.930;3.464;2023-08-21T06:56:20;44.53;;;23.75;;
42682;SDS011;28293;50.930;3.464;2023-08-21T06:58:46;43.90;;;25.30;;
42682;SDS011;28293;50.930;3.464;2023-08-21T07:01:11;37.80;;;23.88;;
42682;SDS011;28293;50.930;3.464;2023-08-21T07:03:37;39.35;;;25.58;;
42682;SDS011;28293;50.930;3.464;2023-08-21T07:06:03;47.95;;;27.48;;
42682;SDS011;28293;50.930;3.464;2023-08-21T07:08:28;46.25;;;26.60;;
42682;SDS011;28293;50.930;3.464;2023-08-21T07:10:54;41.65;;;25.70;;
42682;SDS011;28293;50.930;3.464;2023-08-21T07:13:20;37.75;;;25.15;;
42682;SDS011;28293;50.930;3.464;2023-08-21T07:15:46;43.45;;;26.90;;
42682;SDS011;28293;50.930;3.464;2023-08-21T07:18:12;43.75;;;27.08;;
42682;SDS011;28293;50.930;3.464;2023-08-21T07:20:38;41.42;;;25.08;;
42682;SDS011;28293;50.930;3.464;2023-08-21T07:23:04;51.50;;;27.55;;
42682;SDS011;28293;50.930;3.464;2023-08-21T07:25:29;48.92;;;28.58;;
42682;SDS011;28293;50.930;3.464;2023-08-21T07:27:56;41.80;;;26.15;;
42682;SDS011;28293;50.930;3.464;2023-08-21T07:30:22;41.45;;;25.33;;
42682;SDS011;28293;50.930;3.464;2023-08-21T07:32:48;42.25;;;23.88;;
42682;SDS011;28293;50.930;3.464;2023-08-21T07:35:14;35.83;;;23.65;;
42682;SDS011;28293;50.930;3.464;2023-08-21T07:37:43;37.35;;;23.27;;
42682;SDS011;28293;50.930;3.464;2023-08-21T07:40:09;37.67;;;23.30;;
42682;SDS011;28293;50.930;3.464;2023-08-21T07:42:35;30.60;;;22.80;;
42682;SDS011;28293;50.930;3.464;2023-08-21T07:45:00;29.63;;;22.10;;
42682;SDS011;28293;50.930;3.464;2023-08-21T07:47:27;32.03;;;22.33;;
42682;SDS011;28293;50.930;3.464;2023-08-21T07:49:52;35.15;;;22.75;;
42682;SDS011;28293;50.930;3.464;2023-08-21T07:52:18;38.67;;;24.17;;
42682;SDS011;28293;50.930;3.464;2023-08-21T07:54:44;33.13;;;22.75;;
42682;SDS011;28293;50.930;3.464;2023-08-21T07:57:11;36.67;;;23.30;;
42682;SDS011;28293;50.930;3.464;2023-08-21T07:59:37;35.17;;;23.70;;
42682;SDS011;28293;50.930;3.464;2023-08-21T08:02:02;34.33;;;22.48;;
42682;SDS011;28293;50.930;3.464;2023-08-21T08:04:29;42.88;;;25.33;;
42682;SDS011;28293;50.930;3.464;2023-08-21T08:06:55;38.28;;;23.98;;
42682;SDS011;28293;50.930;3.464;2023-08-21T08:09:21;38.95;;;23.85;;
42682;SDS011;28293;50.930;3.464;2023-08-21T08:11:46;36.08;;;23.45;;
42682;SDS011;28293;50.930;3.464;2023-08-21T08:14:12;41.80;;;23.45;;
42682;SDS011;28293;50.930;3.464;2023-08-21T08:16:38;38.63;;;24.13;;
42682;SDS011;28293;50.930;3.464;2023-08-21T08:19:03;37.03;;;23.20;;
42682;SDS011;28293;50.930;3.464;2023-08-21T08:21:29;34.25;;;21.58;;
42682;SDS011;28293;50.930;3.464;2023-08-21T08:23:55;38.13;;;23.83;;
42682;SDS011;28293;50.930;3.464;2023-08-21T08:26:21;36.30;;;23.90;;
42682;SDS011;28293;50.930;3.464;2023-08-21T08:28:47;35.88;;;23.60;;
42682;SDS011;28293;50.930;3.464;2023-08-21T08:31:19;33.15;;;21.42;;
42682;SDS011;28293;50.930;3.464;2023-08-21T08:33:45;33.53;;;21.05;;
42682;SDS011;28293;50.930;3.464;2023-08-21T08:36:11;35.15;;;20.92;;
42682;SDS011;28293;50.930;3.464;2023-08-21T08:38:37;33.70;;;21.73;;
42682;SDS011;28293;50.930;3.464;2023-08-21T08:41:02;31.77;;;22.23;;
42682;SDS011;28293;50.930;3.464;2023-08-21T08:43:35;33.15;;;22.15;;
42682;SDS011;28293;50.930;3.464;2023-08-21T08:46:05;34.30;;;23.45;;
42682;SDS011;28293;50.930;3.464;2023-08-21T08:48:33;32.30;;;21.27;;
42682;SDS011;28293;50.930;3.464;2023-08-21T08:51:02;34.63;;;23.20;;
42682;SDS011;28293;50.930;3.464;2023-08-21T08:53:31;36.10;;;22.48;;
42682;SDS011;28293;50.930;3.464;2023-08-21T08:55:57;40.47;;;24.40;;
42682;SDS011;28293;50.930;3.464;2023-08-21T08:58:23;37.63;;;23.15;;
42682;SDS011;28293;50.930;3.464;2023-08-21T09:00:49;34.70;;;22.02;;
42682;SDS011;28293;50.930;3.464;2023-08-21T09:03:15;36.65;;;24.05;;
42682;SDS011;28293;50.930;3.464;2023-08-21T09:05:41;34.78;;;23.55;;
42682;SDS011;28293;50.930;3.464;2023-08-21T09:10:37;32.10;;;22.63;;
42682;SDS011;28293;50.930;3.464;2023-08-21T09:13:16;37.42;;;22.65;;
42682;SDS011;28293;50.930;3.464;2023-08-21T09:15:47;34.47;;;23.25;;
42682;SDS011;28293;50.930;3.464;2023-08-21T09:18:18;31.77;;;22.38;;
42682;SDS011;28293;50.930;3.464;2023-08-21T09:20:43;31.85;;;22.13;;
42682;SDS011;28293;50.930;3.464;2023-08-21T09:23:13;31.92;;;23.80;;
42682;SDS011;28293;50.930;3.464;2023-08-21T09:25:40;35.70;;;22.95;;
42682;SDS011;28293;50.930;3.464;2023-08-21T09:28:06;34.13;;;22.42;;
42682;SDS011;28293;50.930;3.464;2023-08-21T09:30:49;33.15;;;21.42;;
42682;SDS011;28293;50.930;3.464;2023-08-21T09:33:17;31.45;;;21.20;;
42682;SDS011;28293;50.930;3.464;2023-08-21T09:35:46;29.00;;;20.08;;
42682;SDS011;28293;50.930;3.464;2023-08-21T09:38:13;34.72;;;22.63;;
42682;SDS011;28293;50.930;3.464;2023-08-21T09:40:42;34.08;;;21.55;;
42682;SDS011;28293;50.930;3.464;2023-08-21T09:43:09;34.05;;;21.25;;
42682;SDS011;28293;50.930;3.464;2023-08-21T09:45:38;34.72;;;21.35;;
42682;SDS011;28293;50.930;3.464;2023-08-21T09:48:04;30.90;;;19.92;;
42682;SDS011;28293;50.930;3.464;2023-08-21T09:50:30;30.15;;;19.55;;
42682;SDS011;28293;50.930;3.464;2023-08-21T09:52:57;32.03;;;21.52;;
42682;SDS011;28293;50.930;3.464;2023-08-21T09:55:24;28.92;;;19.13;;
42682;SDS011;28293;50.930;3.464;2023-08-21T09:57:56;26.45;;;18.15;;
42682;SDS011;28293;50.930;3.464;2023-08-21T10:00:32;25.30;;;19.15;;
42682;SDS011;28293;50.930;3.464;2023-08-21T10:03:00;26.80;;;16.35;;
42682;SDS011;28293;50.930;3.464;2023-08-21T10:05:29;25.73;;;16.90;;
42682;SDS011;28293;50.930;3.464;2023-08-21T10:07:57;25.63;;;16.70;;
42682;SDS011;28293;50.930;3.464;2023-08-21T10:10:32;25.35;;;15.65;;
42682;SDS011;28293;50.930;3.464;2023-08-21T10:12:59;25.48;;;15.30;;
42682;SDS011;28293;50.930;3.464;2023-08-21T10:15:28;23.63;;;15.73;;
42682;SDS011;28293;50.930;3.464;2023-08-21T10:17:54;23.85;;;13.35;;
42682;SDS011;28293;50.930;3.464;2023-08-21T10:20:21;19.10;;;12.45;;
42682;SDS011;28293;50.930;3.464;2023-08-21T10:22:49;20.58;;;11.15;;
42682;SDS011;28293;50.930;3.464;2023-08-21T10:25:19;19.58;;;11.90;;
42682;SDS011;28293;50.930;3.464;2023-08-21T10:27:54;19.45;;;10.95;;
42682;SDS011;28293;50.930;3.464;2023-08-21T10:30:25;16.48;;;11.75;;
42682;SDS011;28293;50.930;3.464;2023-08-21T10:32:54;16.17;;;10.57;;
42682;SDS011;28293;50.930;3.464;2023-08-21T10:35:33;15.95;;;8.80;;
42682;SDS011;28293;50.930;3.464;2023-08-21T10:43:39;20.92;;;11.32;;
42682;SDS011;28293;50.930;3.464;2023-08-21T10:46:06;16.83;;;10.90;;
42682;SDS011;28293;50.930;3.464;2023-08-21T10:48:33;16.80;;;11.45;;
42682;SDS011;28293;50.930;3.464;2023-08-21T10:51:01;18.38;;;11.25;;
42682;SDS011;28293;50.930;3.464;2023-08-21T10:53:29;15.70;;;10.27;;
42682;SDS011;28293;50.930;3.464;2023-08-21T10:55:56;15.30;;;9.02;;
42682;SDS011;28293;50.930;3.464;2023-08-21T10:58:22;11.73;;;6.70;;
42682;SDS011;28293;50.930;3.464;2023-08-21T11:00:57;12.63;;;7.32;;
42682;SDS011;28293;50.930;3.464;2023-08-21T11:03:24;10.27;;;6.13;;
42682;SDS011;28293;50.930;3.464;2023-08-21T11:06:00;10.27;;;5.88;;
42682;SDS011;28293;50.930;3.464;2023-08-21T11:27:53;11.02;;;7.72;;
42682;SDS011;28293;50.930;3.464;2023-08-21T11:30:19;12.50;;;7.88;;
42682;SDS011;28293;50.930;3.464;2023-08-21T11:32:47;15.23;;;9.18;;
42682;SDS011;28293;50.930;3.464;2023-08-21T11:35:13;15.00;;;11.00;;
42682;SDS011;28293;50.930;3.464;2023-08-21T11:37:43;15.27;;;10.95;;
42682;SDS011;28293;50.930;3.464;2023-08-21T11:40:12;13.77;;;11.32;;
42682;SDS011;28293;50.930;3.464;2023-08-21T11:42:39;16.00;;;11.10;;
42682;SDS011;28293;50.930;3.464;2023-08-21T11:45:05;14.20;;;10.13;;
42682;SDS011;28293;50.930;3.464;2023-08-21T11:47:31;15.15;;;10.20;;
42682;SDS011;28293;50.930;3.464;2023-08-21T11:50:02;14.85;;;11.38;;
42682;SDS011;28293;50.930;3.464;2023-08-21T11:52:31;15.20;;;10.35;;
42682;SDS011;28293;50.930;3.464;2023-08-21T11:54:57;12.63;;;10.70;;
42682;SDS011;28293;50.930;3.464;2023-08-21T11:57:24;15.82;;;11.07;;
42682;SDS011;28293;50.930;3.464;2023-08-21T11:59:50;14.77;;;12.68;;
42682;SDS011;28293;50.930;3.464;2023-08-21T12:02:27;17.40;;;13.55;;
42682;SDS011;28293;50.930;3.464;2023-08-21T12:05:05;13.52;;;10.93;;
42682;SDS011;28293;50.930;3.464;2023-08-21T12:07:32;16.13;;;9.98;;
42682;SDS011;28293;50.930;3.464;2023-08-21T12:09:58;13.93;;;10.52;;
42682;SDS011;28293;50.930;3.464;2023-08-21T12:12:24;11.90;;;9.38;;
42682;SDS011;28293;50.930;3.464;2023-08-21T12:14:50;14.23;;;9.20;;
42682;SDS011;28293;50.930;3.464;2023-08-21T12:17:16;11.45;;;8.32;;
42682;SDS011;28293;50.930;3.464;2023-08-21T12:19:41;13.30;;;9.27;;
42682;SDS011;28293;50.930;3.464;2023-08-21T12:22:08;14.15;;;11.95;;
42682;SDS011;28293;50.930;3.464;2023-08-21T12:24:34;11.13;;;9.57;;
42682;SDS011;28293;50.930;3.464;2023-08-21T12:27:00;14.23;;;10.98;;
42682;SDS011;28293;50.930;3.464;2023-08-21T12:29:26;13.60;;;10.15;;
42682;SDS011;28293;50.930;3.464;2023-08-21T12:31:51;13.32;;;9.73;;
42682;SDS011;28293;50.930;3.464;2023-08-21T12:34:17;14.13;;;8.55;;
42682;SDS011;28293;50.930;3.464;2023-08-21T12:36:43;12.77;;;8.25;;
42682;SDS011;28293;50.930;3.464;2023-08-21T12:39:12;9.00;;;7.55;;
42682;SDS011;28293;50.930;3.464;2023-08-21T12:42:09;9.77;;;7.25;;
42682;SDS011;28293;50.930;3.464;2023-08-21T12:44:42;12.00;;;8.95;;
42682;SDS011;28293;50.930;3.464;2023-08-21T12:47:16;10.48;;;7.50;;
42682;SDS011;28293;50.930;3.464;2023-08-21T12:49:42;11.25;;;7.55;;
42682;SDS011;28293;50.930;3.464;2023-08-21T12:52:10;9.38;;;7.93;;
42682;SDS011;28293;50.930;3.464;2023-08-21T12:54:37;11.32;;;8.32;;
42682;SDS011;28293;50.930;3.464;2023-08-21T12:57:04;12.43;;;8.25;;
42682;SDS011;28293;50.930;3.464;2023-08-21T12:59:30;10.75;;;7.30;;
42682;SDS011;28293;50.930;3.464;2023-08-21T13:02:07;10.27;;;7.80;;
42682;SDS011;28293;50.930;3.464;2023-08-21T13:04:42;10.20;;;7.40;;
42682;SDS011;28293;50.930;3.464;2023-08-21T13:07:13;10.90;;;7.72;;
42682;SDS011;28293;50.930;3.464;2023-08-21T13:09:39;9.77;;;6.97;;
42682;SDS011;28293;50.930;3.464;2023-08-21T13:12:05;9.55;;;6.38;;
42682;SDS011;28293;50.930;3.464;2023-08-21T13:17:29;8.60;;;6.03;;
42682;SDS011;28293;50.930;3.464;2023-08-21T13:19:55;9.80;;;6.15;;
42682;SDS011;28293;50.930;3.464;2023-08-21T13:22:21;7.68;;;5.20;;
42682;SDS011;28293;50.930;3.464;2023-08-21T13:24:46;10.38;;;7.88;;
42682;SDS011;28293;50.930;3.464;2023-08-21T13:27:12;12.30;;;7.90;;
42682;SDS011;28293;50.930;3.464;2023-08-21T13:29:38;9.45;;;5.95;;
42682;SDS011;28293;50.930;3.464;2023-08-21T13:32:04;8.85;;;6.47;;
42682;SDS011;28293;50.930;3.464;2023-08-21T13:34:30;9.75;;;6.40;;
42682;SDS011;28293;50.930;3.464;2023-08-21T13:36:56;11.40;;;6.30;;
42682;SDS011;28293;50.930;3.464;2023-08-21T13:39:22;10.05;;;7.50;;
42682;SDS011;28293;50.930;3.464;2023-08-21T13:41:48;11.40;;;8.02;;
42682;SDS011;28293;50.930;3.464;2023-08-21T13:44:17;12.07;;;7.70;;
42682;SDS011;28293;50.930;3.464;2023-08-21T13:46:42;9.75;;;7.50;;
42682;SDS011;28293;50.930;3.464;2023-08-21T13:49:08;11.10;;;7.20;;
42682;SDS011;28293;50.930;3.464;2023-08-21T13:51:34;9.45;;;7.68;;
42682;SDS011;28293;50.930;3.464;2023-08-21T13:54:00;10.45;;;8.15;;
42682;SDS011;28293;50.930;3.464;2023-08-21T13:56:25;11.15;;;8.18;;
42682;SDS011;28293;50.930;3.464;2023-08-21T13:58:51;13.15;;;9.13;;
42682;SDS011;28293;50.930;3.464;2023-08-21T14:01:17;9.30;;;6.45;;
42682;SDS011;28293;50.930;3.464;2023-08-21T14:03:43;10.02;;;5.95;;
42682;SDS011;28293;50.930;3.464;2023-08-21T14:06:08;10.75;;;7.70;;
42682;SDS011;28293;50.930;3.464;2023-08-21T14:08:37;9.95;;;7.13;;
42682;SDS011;28293;50.930;3.464;2023-08-21T14:11:03;8.43;;;6.60;;
42682;SDS011;28293;50.930;3.464;2023-08-21T14:13:29;13.10;;;6.70;;
42682;SDS011;28293;50.930;3.464;2023-08-21T14:15:55;9.43;;;7.28;;
42682;SDS011;28293;50.930;3.464;2023-08-21T14:18:21;11.00;;;8.30;;
42682;SDS011;28293;50.930;3.464;2023-08-21T14:20:46;12.00;;;7.60;;
42682;SDS011;28293;50.930;3.464;2023-08-21T14:23:12;10.25;;;6.40;;
42682;SDS011;28293;50.930;3.464;2023-08-21T14:25:38;10.43;;;6.07;;
42682;SDS011;28293;50.930;3.464;2023-08-21T14:28:03;11.18;;;6.32;;
42682;SDS011;28293;50.930;3.464;2023-08-21T14:30:29;8.20;;;6.70;;
42682;SDS011;28293;50.930;3.464;2023-08-21T14:32:55;7.97;;;5.72;;
42682;SDS011;28293;50.930;3.464;2023-08-21T14:35:21;8.70;;;5.50;;
42682;SDS011;28293;50.930;3.464;2023-08-21T14:37:46;10.77;;;5.82;;
42682;SDS011;28293;50.930;3.464;2023-08-21T14:40:12;8.82;;;4.90;;
42682;SDS011;28293;50.930;3.464;2023-08-21T14:42:38;9.50;;;4.63;;
42682;SDS011;28293;50.930;3.464;2023-08-21T14:45:04;9.43;;;4.50;;
42682;SDS011;28293;50.930;3.464;2023-08-21T14:47:31;9.43;;;4.50;;
42682;SDS011;28293;50.930;3.464;2023-08-21T14:49:57;7.82;;;4.40;;
42682;SDS011;28293;50.930;3.464;2023-08-21T14:52:23;8.43;;;4.88;;
42682;SDS011;28293;50.930;3.464;2023-08-21T14:54:52;8.50;;;5.13;;
42682;SDS011;28293;50.930;3.464;2023-08-21T14:57:18;7.75;;;5.07;;
42682;SDS011;28293;50.930;3.464;2023-08-21T14:59:43;8.60;;;5.47;;
42682;SDS011;28293;50.930;3.464;2023-08-21T15:02:09;8.73;;;4.65;;